Agia Irini Chrisoval — SV3972 — position and weather

sailwx.info

Track history (hours):
 
Tides and Currents Weather Stations Pressure Air Temp Water Temp Dewpoint Dewpoint Depression Visibility Wind Speed Wind Dir Waves Ship Positions

Agia Irini Chrisoval

Last reported at 2017-Sep-26 16:31 UTC. Time now 2017-Sep-26 16:41 UTC.
Position N 37°52' E 023°38'.

Length 22 m.

Type: Fishing. MMSI: 237562000.

Date/timePositionNaut miles runAvg speedWind from/ knotsBaromVisibWave heightAir tempDewpointWater temp
2017-Sep-26 16:31N 37°52' E 023°38'4 7.8
2017-Sep-26 16:01N 37°55' E 023°39'1 0.1
2017-Sep-26 06:10N 37°56' E 023°40'1 6.5
2017-Sep-26 06:01N 37°56' E 023°39'3 5.1
2017-Sep-26 05:31N 37°58' E 023°37'0 0.4
2017-Sep-26 05:00N 37°57' E 023°37'0 0.0
2017-Sep-26 04:30N 37°57' E 023°37'1 1.5
2017-Sep-26 04:00N 37°57' E 023°36'4 8.8
2017-Sep-26 03:30N 37°53' E 023°35'5 9.1
2017-Sep-26 03:01N 37°48' E 023°35'5 9.0
2017-Sep-26 02:30N 37°44' E 023°34'1 0.4
2017-Sep-26 01:11N 37°43' E 023°34'0 0.2
2017-Sep-26 00:32N 37°43' E 023°34'0 0.4
2017-Sep-26 00:30N 37°43' E 023°34'0 0.5
2017-Sep-26 00:01N 37°43' E 023°34'0 0.6
2017-Sep-25 23:31N 37°43' E 023°34'0 0.3
2017-Sep-25 23:00N 37°43' E 023°34'0 0.2
2017-Sep-25 22:28N 37°43' E 023°34'1 2.8
2017-Sep-25 21:57N 37°44' E 023°32'0 0.0
2017-Sep-25 21:31N 37°44' E 023°32'0 0.0
2017-Sep-25 20:58N 37°44' E 023°32'0 0.0
2017-Sep-25 20:26N 37°44' E 023°32'0 0.0
2017-Sep-25 19:57N 37°44' E 023°32'0 0.0
2017-Sep-25 19:30N 37°44' E 023°32'0 0.0
2017-Sep-25 19:01N 37°44' E 023°32'0 0.5
2017-Sep-25 18:30N 37°44' E 023°33'1 2.5
2017-Sep-25 17:59N 37°43' E 023°34'1 1.9
2017-Sep-25 17:28N 37°44' E 023°34'3 7.3
2017-Sep-25 17:00N 37°47' E 023°36'4 7.1
2017-Sep-25 16:31N 37°51' E 023°37'4 7.7
2017-Sep-25 16:01N 37°54' E 023°39'2 4.1
2017-Sep-25 15:30N 37°56' E 023°40'0 0.0
2017-Sep-25 04:28N 37°56' E 023°40'3 6.9
2017-Sep-25 04:00N 37°57' E 023°36'1 1.8
2017-Sep-25 03:30N 37°57' E 023°37'0 0.0
2017-Sep-25 03:00N 37°57' E 023°37'0 0.0
2017-Sep-25 02:30N 37°57' E 023°37'3 6.2
2017-Sep-25 02:00N 37°55' E 023°36'4 8.5
2017-Sep-25 01:30N 37°50' E 023°35'4 8.3
2017-Sep-25 01:00N 37°46' E 023°35'2 3.8
2017-Sep-25 00:24N 37°44' E 023°35'0 0.2
2017-Sep-25 00:00N 37°44' E 023°35'0 0.3
2017-Sep-24 23:27N 37°44' E 023°35'0 0.3
2017-Sep-24 23:00N 37°44' E 023°35'0 0.1
2017-Sep-24 22:30N 37°44' E 023°35'1 2.9
2017-Sep-24 22:00N 37°44' E 023°33'0 0.9
2017-Sep-24 21:29N 37°45' E 023°32'0 0.0
2017-Sep-24 21:00N 37°45' E 023°32'0 0.0
2017-Sep-24 20:30N 37°45' E 023°32'0 0.0
2017-Sep-24 20:00N 37°45' E 023°32'0 0.0
2017-Sep-24 19:27N 37°45' E 023°32'0 0.0
2017-Sep-24 18:59N 37°45' E 023°32'0 0.0
2017-Sep-24 18:30N 37°45' E 023°32'2 3.4
2017-Sep-24 18:00N 37°44' E 023°34'1 1.7
2017-Sep-24 17:30N 37°45' E 023°35'4 7.4
2017-Sep-24 17:00N 37°48' E 023°36'4 7.4
2017-Sep-24 16:30N 37°52' E 023°38'4 7.9
2017-Sep-24 16:00N 37°56' E 023°39'1 1.5
2017-Sep-24 15:30N 37°56' E 023°40'  
2017-Sep-21 06:22N 37°57' E 023°36'3 7.7
2017-Sep-21 06:00N 37°55' E 023°34'4 8.4
2017-Sep-21 05:30N 37°51' E 023°32'4 7.5
2017-Sep-21 05:00N 37°48' E 023°33'2 4.9
2017-Sep-21 04:30N 37°45' E 023°34'2 3.2
2017-Sep-21 03:47N 37°43' E 023°33'0 0.3
2017-Sep-21 03:29N 37°43' E 023°33'0 0.2
2017-Sep-21 03:00N 37°43' E 023°33'0 0.4
2017-Sep-21 02:30N 37°43' E 023°33'1 2.5
2017-Sep-21 02:00N 37°45' E 023°33'0 0.0
2017-Sep-21 01:30N 37°45' E 023°33'0 0.0
2017-Sep-21 01:00N 37°45' E 023°33'0 0.0
2017-Sep-21 00:30N 37°45' E 023°33'0 0.0
2017-Sep-21 00:00N 37°45' E 023°33'0 0.0
2017-Sep-20 23:30N 37°45' E 023°33'1 2.6
2017-Sep-20 23:00N 37°43' E 023°33'1 2.3
2017-Sep-20 22:27N 37°44' E 023°33'0 0.0
2017-Sep-20 21:59N 37°44' E 023°33'0 0.0
2017-Sep-20 21:30N 37°44' E 023°33'0 0.0
2017-Sep-20 20:59N 37°44' E 023°33'0 0.0
2017-Sep-20 20:30N 37°44' E 023°33'1 2.5
2017-Sep-20 20:00N 37°43' E 023°33'0 0.3
2017-Sep-20 19:25N 37°43' E 023°33'1 2.0
2017-Sep-20 18:59N 37°44' E 023°33'3 6.5
2017-Sep-20 18:30N 37°47' E 023°34'4 7.5
2017-Sep-20 18:00N 37°51' E 023°32'4 7.2
2017-Sep-20 17:30N 37°54' E 023°33'3 6.5
2017-Sep-20 17:00N 37°57' E 023°36'1 0.1
2017-Sep-20 01:56N 37°57' E 023°37'2 5.6
2017-Sep-20 01:30N 37°55' E 023°36'4 7.6
2017-Sep-20 00:59N 37°51' E 023°36'4 8.0
2017-Sep-20 00:31N 37°47' E 023°36'3 6.7
2017-Sep-20 00:01N 37°44' E 023°36'0 0.2
2017-Sep-19 23:31N 37°44' E 023°36'0 0.3
2017-Sep-19 23:01N 37°44' E 023°36'0 0.6
2017-Sep-19 22:30N 37°44' E 023°36'0 0.2
2017-Sep-19 21:59N 37°44' E 023°35'1 1.7
2017-Sep-19 21:31N 37°45' E 023°35'0 0.3
2017-Sep-19 21:01N 37°45' E 023°35'0 0.4
2017-Sep-19 20:31N 37°45' E 023°35'0 0.5
2017-Sep-19 20:01N 37°44' E 023°35'0 0.4
2017-Sep-19 19:31N 37°44' E 023°35'1 1.2
2017-Sep-19 19:00N 37°44' E 023°36'0 0.9
2017-Sep-19 18:30N 37°44' E 023°35'4 7.2
2017-Sep-19 18:01N 37°48' E 023°35'4 7.8
2017-Sep-19 17:30N 37°52' E 023°35'4 7.8
2017-Sep-19 17:00N 37°55' E 023°36'2 0.1
2017-Sep-19 01:28N 37°57' E 023°37'4 7.7
2017-Sep-19 01:00N 37°54' E 023°35'4 7.6
2017-Sep-19 00:30N 37°50' E 023°34'4 8.1
2017-Sep-19 00:00N 37°46' E 023°35'3 6.5
2017-Sep-18 23:28N 37°43' E 023°34'0 0.1
2017-Sep-18 22:56N 37°43' E 023°34'0 0.2
2017-Sep-18 22:29N 37°43' E 023°34'0 0.6
2017-Sep-18 22:00N 37°43' E 023°34'0 0.3
2017-Sep-18 21:30N 37°43' E 023°34'1 1.3
2017-Sep-18 21:00N 37°43' E 023°34'0 0.1
2017-Sep-18 20:30N 37°43' E 023°34'0 0.5
2017-Sep-18 20:00N 37°43' E 023°34'0 0.7
2017-Sep-18 19:30N 37°43' E 023°34'0 0.6
2017-Sep-18 19:00N 37°43' E 023°33'0 0.9
2017-Sep-18 18:30N 37°43' E 023°34'1 2.0
2017-Sep-18 18:00N 37°44' E 023°34'2 4.8
2017-Sep-18 17:30N 37°46' E 023°36'3 6.9
2017-Sep-18 17:00N 37°49' E 023°37'4 7.6
2017-Sep-18 16:30N 37°53' E 023°38'4 7.1
2017-Sep-18 16:00N 37°56' E 023°40'0 0.4
2017-Sep-18 15:30N 37°56' E 023°40'0 0.0
2017-Sep-18 06:43N 37°56' E 023°40'2 7.6
2017-Sep-18 06:30N 37°55' E 023°38'2 4.3
2017-Sep-18 06:00N 37°57' E 023°37'0 0.0
2017-Sep-18 05:30N 37°57' E 023°37'1 1.3
2017-Sep-18 05:00N 37°57' E 023°36'4 8.7
2017-Sep-18 04:30N 37°53' E 023°35'4 8.6
2017-Sep-18 04:00N 37°49' E 023°35'4 8.4
2017-Sep-18 03:30N 37°45' E 023°34'0 0.3
2017-Sep-18 03:00N 37°44' E 023°34'0 0.3
2017-Sep-18 02:30N 37°44' E 023°34'0 0.1
2017-Sep-18 02:00N 37°44' E 023°34'0 0.1
2017-Sep-18 01:30N 37°44' E 023°34'0 0.8
2017-Sep-18 01:00N 37°44' E 023°33'0 0.2
2017-Sep-18 00:30N 37°44' E 023°33'0 0.0
2017-Sep-18 00:00N 37°44' E 023°33'0 0.0
2017-Sep-17 23:25N 37°44' E 023°33'0 0.1
2017-Sep-17 23:00N 37°44' E 023°33'0 0.2
2017-Sep-17 22:30N 37°44' E 023°33'1 0.4
2017-Sep-17 21:01N 37°45' E 023°32'0 0.4
2017-Sep-17 21:00N 37°45' E 023°32'0 0.0
2017-Sep-17 20:30N 37°45' E 023°32'0 0.0
2017-Sep-17 19:56N 37°45' E 023°32'1 2.0
2017-Sep-17 19:30N 37°44' E 023°33'0 0.7
2017-Sep-17 19:00N 37°44' E 023°33'0 0.5
2017-Sep-17 18:30N 37°44' E 023°33'3 5.6
2017-Sep-17 18:00N 37°44' E 023°37'1 1.5
2017-Sep-17 17:30N 37°45' E 023°36'1 2.2
2017-Sep-17 17:00N 37°46' E 023°35'3 6.8
2017-Sep-17 16:30N 37°49' E 023°36'4 7.2
2017-Sep-17 16:00N 37°52' E 023°38'4 7.2
2017-Sep-17 15:30N 37°56' E 023°40'  
Track history (hours):
 
Tides and Currents Weather Stations Pressure Air Temp Water Temp Dewpoint Dewpoint Depression Visibility Wind Speed Wind Dir Waves Ship Positions

Agia Irini Chrisoval

Last reported at 2017-Sep-26 16:31 UTC. Time now 2017-Sep-26 16:41 UTC.
Position N 37°52' E 023°38'.

Length 22 m.

Type: Fishing. MMSI: 237562000.

Date/timePositionNaut miles runAvg speedWind from/ knotsBaromVisibWave heightAir tempDewpointWater temp
2017-Sep-26 16:31N 37°52' E 023°38'4 7.8
2017-Sep-26 16:01N 37°55' E 023°39'1 0.1
2017-Sep-26 06:10N 37°56' E 023°40'1 6.5
2017-Sep-26 06:01N 37°56' E 023°39'3 5.1
2017-Sep-26 05:31N 37°58' E 023°37'0 0.4
2017-Sep-26 05:00N 37°57' E 023°37'0 0.0
2017-Sep-26 04:30N 37°57' E 023°37'1 1.5
2017-Sep-26 04:00N 37°57' E 023°36'4 8.8
2017-Sep-26 03:30N 37°53' E 023°35'5 9.1
2017-Sep-26 03:01N 37°48' E 023°35'5 9.0
2017-Sep-26 02:30N 37°44' E 023°34'1 0.4
2017-Sep-26 01:11N 37°43' E 023°34'0 0.2
2017-Sep-26 00:32N 37°43' E 023°34'0 0.4
2017-Sep-26 00:30N 37°43' E 023°34'0 0.5
2017-Sep-26 00:01N 37°43' E 023°34'0 0.6
2017-Sep-25 23:31N 37°43' E 023°34'0 0.3
2017-Sep-25 23:00N 37°43' E 023°34'0 0.2
2017-Sep-25 22:28N 37°43' E 023°34'1 2.8
2017-Sep-25 21:57N 37°44' E 023°32'0 0.0
2017-Sep-25 21:31N 37°44' E 023°32'0 0.0
2017-Sep-25 20:58N 37°44' E 023°32'0 0.0
2017-Sep-25 20:26N 37°44' E 023°32'0 0.0
2017-Sep-25 19:57N 37°44' E 023°32'0 0.0
2017-Sep-25 19:30N 37°44' E 023°32'0 0.0
2017-Sep-25 19:01N 37°44' E 023°32'0 0.5
2017-Sep-25 18:30N 37°44' E 023°33'1 2.5
2017-Sep-25 17:59N 37°43' E 023°34'1 1.9
2017-Sep-25 17:28N 37°44' E 023°34'3 7.3
2017-Sep-25 17:00N 37°47' E 023°36'4 7.1
2017-Sep-25 16:31N 37°51' E 023°37'4 7.7
2017-Sep-25 16:01N 37°54' E 023°39'2 4.1
2017-Sep-25 15:30N 37°56' E 023°40'0 0.0
2017-Sep-25 04:28N 37°56' E 023°40'3 6.9
2017-Sep-25 04:00N 37°57' E 023°36'1 1.8
2017-Sep-25 03:30N 37°57' E 023°37'0 0.0
2017-Sep-25 03:00N 37°57' E 023°37'0 0.0
2017-Sep-25 02:30N 37°57' E 023°37'3 6.2
2017-Sep-25 02:00N 37°55' E 023°36'4 8.5
2017-Sep-25 01:30N 37°50' E 023°35'4 8.3
2017-Sep-25 01:00N 37°46' E 023°35'2 3.8
2017-Sep-25 00:24N 37°44' E 023°35'0 0.2
2017-Sep-25 00:00N 37°44' E 023°35'0 0.3
2017-Sep-24 23:27N 37°44' E 023°35'0 0.3
2017-Sep-24 23:00N 37°44' E 023°35'0 0.1
2017-Sep-24 22:30N 37°44' E 023°35'1 2.9
2017-Sep-24 22:00N 37°44' E 023°33'0 0.9
2017-Sep-24 21:29N 37°45' E 023°32'0 0.0
2017-Sep-24 21:00N 37°45' E 023°32'0 0.0
2017-Sep-24 20:30N 37°45' E 023°32'0 0.0
2017-Sep-24 20:00N 37°45' E 023°32'0 0.0
2017-Sep-24 19:27N 37°45' E 023°32'0 0.0
2017-Sep-24 18:59N 37°45' E 023°32'0 0.0
2017-Sep-24 18:30N 37°45' E 023°32'2 3.4
2017-Sep-24 18:00N 37°44' E 023°34'1 1.7
2017-Sep-24 17:30N 37°45' E 023°35'4 7.4
2017-Sep-24 17:00N 37°48' E 023°36'4 7.4
2017-Sep-24 16:30N 37°52' E 023°38'4 7.9
2017-Sep-24 16:00N 37°56' E 023°39'1 1.5
2017-Sep-24 15:30N 37°56' E 023°40'  
2017-Sep-21 06:22N 37°57' E 023°36'3 7.7
2017-Sep-21 06:00N 37°55' E 023°34'4 8.4
2017-Sep-21 05:30N 37°51' E 023°32'4 7.5
2017-Sep-21 05:00N 37°48' E 023°33'2 4.9
2017-Sep-21 04:30N 37°45' E 023°34'2 3.2
2017-Sep-21 03:47N 37°43' E 023°33'0 0.3
2017-Sep-21 03:29N 37°43' E 023°33'0 0.2
2017-Sep-21 03:00N 37°43' E 023°33'0 0.4
2017-Sep-21 02:30N 37°43' E 023°33'1 2.5
2017-Sep-21 02:00N 37°45' E 023°33'0 0.0
2017-Sep-21 01:30N 37°45' E 023°33'0 0.0
2017-Sep-21 01:00N 37°45' E 023°33'0 0.0
2017-Sep-21 00:30N 37°45' E 023°33'0 0.0
2017-Sep-21 00:00N 37°45' E 023°33'0 0.0
2017-Sep-20 23:30N 37°45' E 023°33'1 2.6
2017-Sep-20 23:00N 37°43' E 023°33'1 2.3
2017-Sep-20 22:27N 37°44' E 023°33'0 0.0
2017-Sep-20 21:59N 37°44' E 023°33'0 0.0
2017-Sep-20 21:30N 37°44' E 023°33'0 0.0
2017-Sep-20 20:59N 37°44' E 023°33'0 0.0
2017-Sep-20 20:30N 37°44' E 023°33'1 2.5
2017-Sep-20 20:00N 37°43' E 023°33'0 0.3
2017-Sep-20 19:25N 37°43' E 023°33'1 2.0
2017-Sep-20 18:59N 37°44' E 023°33'3 6.5
2017-Sep-20 18:30N 37°47' E 023°34'4 7.5
2017-Sep-20 18:00N 37°51' E 023°32'4 7.2
2017-Sep-20 17:30N 37°54' E 023°33'3 6.5
2017-Sep-20 17:00N 37°57' E 023°36'1 0.1
2017-Sep-20 01:56N 37°57' E 023°37'2 5.6
2017-Sep-20 01:30N 37°55' E 023°36'4 7.6
2017-Sep-20 00:59N 37°51' E 023°36'4 8.0
2017-Sep-20 00:31N 37°47' E 023°36'3 6.7
2017-Sep-20 00:01N 37°44' E 023°36'0 0.2
2017-Sep-19 23:31N 37°44' E 023°36'0 0.3
2017-Sep-19 23:01N 37°44' E 023°36'0 0.6
2017-Sep-19 22:30N 37°44' E 023°36'0 0.2
2017-Sep-19 21:59N 37°44' E 023°35'1 1.7
2017-Sep-19 21:31N 37°45' E 023°35'0 0.3
2017-Sep-19 21:01N 37°45' E 023°35'0 0.4
2017-Sep-19 20:31N 37°45' E 023°35'0 0.5
2017-Sep-19 20:01N 37°44' E 023°35'0 0.4
2017-Sep-19 19:31N 37°44' E 023°35'1 1.2
2017-Sep-19 19:00N 37°44' E 023°36'0 0.9
2017-Sep-19 18:30N 37°44' E 023°35'4 7.2
2017-Sep-19 18:01N 37°48' E 023°35'4 7.8
2017-Sep-19 17:30N 37°52' E 023°35'4 7.8
2017-Sep-19 17:00N 37°55' E 023°36'2 0.1
2017-Sep-19 01:28N 37°57' E 023°37'4 7.7
2017-Sep-19 01:00N 37°54' E 023°35'4 7.6
2017-Sep-19 00:30N 37°50' E 023°34'4 8.1
2017-Sep-19 00:00N 37°46' E 023°35'3 6.5
2017-Sep-18 23:28N 37°43' E 023°34'0 0.1
2017-Sep-18 22:56N 37°43' E 023°34'0 0.2
2017-Sep-18 22:29N 37°43' E 023°34'0 0.6
2017-Sep-18 22:00N 37°43' E 023°34'0 0.3
2017-Sep-18 21:30N 37°43' E 023°34'1 1.3
2017-Sep-18 21:00N 37°43' E 023°34'0 0.1
2017-Sep-18 20:30N 37°43' E 023°34'0 0.5
2017-Sep-18 20:00N 37°43' E 023°34'0 0.7
2017-Sep-18 19:30N 37°43' E 023°34'0 0.6
2017-Sep-18 19:00N 37°43' E 023°33'0 0.9
2017-Sep-18 18:30N 37°43' E 023°34'1 2.0
2017-Sep-18 18:00N 37°44' E 023°34'2 4.8
2017-Sep-18 17:30N 37°46' E 023°36'3 6.9
2017-Sep-18 17:00N 37°49' E 023°37'4 7.6
2017-Sep-18 16:30N 37°53' E 023°38'4 7.1
2017-Sep-18 16:00N 37°56' E 023°40'0 0.4
2017-Sep-18 15:30N 37°56' E 023°40'0 0.0
2017-Sep-18 06:43N 37°56' E 023°40'2 7.6
2017-Sep-18 06:30N 37°55' E 023°38'2 4.3
2017-Sep-18 06:00N 37°57' E 023°37'0 0.0
2017-Sep-18 05:30N 37°57' E 023°37'1 1.3
2017-Sep-18 05:00N 37°57' E 023°36'4 8.7
2017-Sep-18 04:30N 37°53' E 023°35'4 8.6
2017-Sep-18 04:00N 37°49' E 023°35'4 8.4
2017-Sep-18 03:30N 37°45' E 023°34'0 0.3
2017-Sep-18 03:00N 37°44' E 023°34'0 0.3
2017-Sep-18 02:30N 37°44' E 023°34'0 0.1
2017-Sep-18 02:00N 37°44' E 023°34'0 0.1
2017-Sep-18 01:30N 37°44' E 023°34'0 0.8
2017-Sep-18 01:00N 37°44' E 023°33'0 0.2
2017-Sep-18 00:30N 37°44' E 023°33'0 0.0
2017-Sep-18 00:00N 37°44' E 023°33'0 0.0
2017-Sep-17 23:25N 37°44' E 023°33'0 0.1
2017-Sep-17 23:00N 37°44' E 023°33'0 0.2
2017-Sep-17 22:30N 37°44' E 023°33'1 0.4
2017-Sep-17 21:01N 37°45' E 023°32'0 0.4
2017-Sep-17 21:00N 37°45' E 023°32'0 0.0
2017-Sep-17 20:30N 37°45' E 023°32'0 0.0
2017-Sep-17 19:56N 37°45' E 023°32'1 2.0
2017-Sep-17 19:30N 37°44' E 023°33'0 0.7
2017-Sep-17 19:00N 37°44' E 023°33'0 0.5
2017-Sep-17 18:30N 37°44' E 023°33'3 5.6
2017-Sep-17 18:00N 37°44' E 023°37'1 1.5
2017-Sep-17 17:30N 37°45' E 023°36'1 2.2
2017-Sep-17 17:00N 37°46' E 023°35'3 6.8
2017-Sep-17 16:30N 37°49' E 023°36'4 7.2
2017-Sep-17 16:00N 37°52' E 023°38'4 7.2
2017-Sep-17 15:30N 37°56' E 023°40'  

Dump ship's entire track history